sensor_id;sensor_type;location;lat;lon;timestamp;pressure;altitude;pressure_sealevel;temperature;humidity
8075;BME280;4080;42.676;23.372;2023-05-23T00:00:38;94986.97;;;12.89;100.00
8075;BME280;4080;42.676;23.372;2023-05-23T00:03:04;94982.06;;;12.77;100.00
8075;BME280;4080;42.676;23.372;2023-05-23T00:05:31;94983.00;;;12.62;100.00
8075;BME280;4080;42.676;23.372;2023-05-23T00:07:59;94972.56;;;12.47;100.00
8075;BME280;4080;42.676;23.372;2023-05-23T00:10:26;94981.56;;;12.46;100.00
8075;BME280;4080;42.676;23.372;2023-05-23T00:12:54;94978.38;;;12.49;100.00
8075;BME280;4080;42.676;23.372;2023-05-23T00:15:22;94976.56;;;12.44;100.00
8075;BME280;4080;42.676;23.372;2023-05-23T00:17:51;94976.63;;;12.39;100.00
8075;BME280;4080;42.676;23.372;2023-05-23T00:20:18;94982.53;;;12.31;100.00
8075;BME280;4080;42.676;23.372;2023-05-23T00:22:45;94975.44;;;12.27;100.00
8075;BME280;4080;42.676;23.372;2023-05-23T00:25:12;94942.38;;;11.95;100.00
8075;BME280;4080;42.676;23.372;2023-05-23T00:27:39;94982.91;;;12.15;100.00
8075;BME280;4080;42.676;23.372;2023-05-23T00:30:07;94976.28;;;12.17;100.00
8075;BME280;4080;42.676;23.372;2023-05-23T00:32:33;94981.25;;;12.24;100.00
8075;BME280;4080;42.676;23.372;2023-05-23T00:35:01;94968.00;;;12.29;100.00
8075;BME280;4080;42.676;23.372;2023-05-23T00:37:28;94972.44;;;12.33;100.00
8075;BME280;4080;42.676;23.372;2023-05-23T00:39:56;94971.09;;;12.36;100.00
8075;BME280;4080;42.676;23.372;2023-05-23T00:42:23;94971.09;;;12.36;100.00
8075;BME280;4080;42.676;23.372;2023-05-23T00:44:49;94967.38;;;12.37;100.00
8075;BME280;4080;42.676;23.372;2023-05-23T00:47:16;94968.13;;;12.42;100.00
8075;BME280;4080;42.676;23.372;2023-05-23T00:49:43;94962.03;;;12.42;100.00
8075;BME280;4080;42.676;23.372;2023-05-23T00:52:13;94965.03;;;12.35;100.00
8075;BME280;4080;42.676;23.372;2023-05-23T00:54:41;94965.59;;;12.32;100.00
8075;BME280;4080;42.676;23.372;2023-05-23T00:57:08;94968.22;;;12.32;100.00
8075;BME280;4080;42.676;23.372;2023-05-23T00:59:36;94970.31;;;12.35;100.00
8075;BME280;4080;42.676;23.372;2023-05-23T01:02:03;94962.16;;;12.32;100.00
8075;BME280;4080;42.676;23.372;2023-05-23T01:04:30;94978.47;;;12.39;100.00
8075;BME280;4080;42.676;23.372;2023-05-23T01:06:58;94984.56;;;12.39;100.00
8075;BME280;4080;42.676;23.372;2023-05-23T01:09:27;94934.88;;;12.07;100.00
8075;BME280;4080;42.676;23.372;2023-05-23T01:12:02;94977.47;;;12.35;100.00
8075;BME280;4080;42.676;23.372;2023-05-23T01:14:40;94968.78;;;12.29;100.00
8075;BME280;4080;42.676;23.372;2023-05-23T01:17:12;94969.47;;;12.40;100.00
8075;BME280;4080;42.676;23.372;2023-05-23T01:19:57;94974.19;;;12.43;100.00
8075;BME280;4080;42.676;23.372;2023-05-23T01:22:43;94968.34;;;12.46;100.00
8075;BME280;4080;42.676;23.372;2023-05-23T01:25:27;94978.94;;;12.46;100.00
8075;BME280;4080;42.676;23.372;2023-05-23T01:28:04;94980.50;;;12.47;100.00
8075;BME280;4080;42.676;23.372;2023-05-23T01:30:34;94977.69;;;12.38;100.00
8075;BME280;4080;42.676;23.372;2023-05-23T01:33:03;94967.00;;;12.20;100.00
8075;BME280;4080;42.676;23.372;2023-05-23T01:35:31;94979.72;;;12.18;100.00
8075;BME280;4080;42.676;23.372;2023-05-23T01:37:59;94969.75;;;12.09;100.00
8075;BME280;4080;42.676;23.372;2023-05-23T01:40:25;94950.34;;;11.90;100.00
8075;BME280;4080;42.676;23.372;2023-05-23T01:42:53;94976.16;;;12.03;100.00
8075;BME280;4080;42.676;23.372;2023-05-23T01:45:23;94966.19;;;11.95;100.00
8075;BME280;4080;42.676;23.372;2023-05-23T01:47:52;94939.63;;;11.71;100.00
8075;BME280;4080;42.676;23.372;2023-05-23T01:50:21;94955.72;;;11.75;100.00
8075;BME280;4080;42.676;23.372;2023-05-23T01:52:49;94934.94;;;11.63;100.00
8075;BME280;4080;42.676;23.372;2023-05-23T01:55:18;94949.94;;;11.73;100.00
8075;BME280;4080;42.676;23.372;2023-05-23T01:57:49;94949.41;;;11.71;100.00
8075;BME280;4080;42.676;23.372;2023-05-23T02:00:17;94826.16;;;10.83;100.00
8075;BME280;4080;42.676;23.372;2023-05-23T02:02:45;94955.22;;;11.73;100.00
8075;BME280;4080;42.676;23.372;2023-05-23T02:05:12;94968.31;;;11.88;100.00
8075;BME280;4080;42.676;23.372;2023-05-23T02:07:39;94962.22;;;11.93;100.00
8075;BME280;4080;42.676;23.372;2023-05-23T02:10:07;94969.56;;;12.01;100.00
8075;BME280;4080;42.676;23.372;2023-05-23T02:12:34;94964.84;;;11.98;100.00
8075;BME280;4080;42.676;23.372;2023-05-23T02:15:01;94958.78;;;11.92;100.00
8075;BME280;4080;42.676;23.372;2023-05-23T02:17:28;94966.13;;;12.00;100.00
8075;BME280;4080;42.676;23.372;2023-05-23T02:19:56;94970.63;;;12.00;100.00
8075;BME280;4080;42.676;23.372;2023-05-23T02:22:23;94966.41;;;11.99;100.00
8075;BME280;4080;42.676;23.372;2023-05-23T02:24:50;94972.44;;;12.04;100.00
8075;BME280;4080;42.676;23.372;2023-05-23T02:27:17;94934.47;;;11.90;100.00
8075;BME280;4080;42.676;23.372;2023-05-23T02:29:44;94924.13;;;11.94;100.00
8075;BME280;4080;42.676;23.372;2023-05-23T02:32:10;94959.56;;;12.27;100.00
8075;BME280;4080;42.676;23.372;2023-05-23T02:34:37;94958.72;;;12.31;100.00
8075;BME280;4080;42.676;23.372;2023-05-23T02:37:06;94947.41;;;12.26;100.00
8075;BME280;4080;42.676;23.372;2023-05-23T02:39:33;94959.00;;;12.30;100.00
8075;BME280;4080;42.676;23.372;2023-05-23T02:42:00;94950.06;;;12.26;100.00
8075;BME280;4080;42.676;23.372;2023-05-23T02:44:27;94956.66;;;12.23;100.00
8075;BME280;4080;42.676;23.372;2023-05-23T02:46:54;94958.00;;;12.21;100.00
8075;BME280;4080;42.676;23.372;2023-05-23T02:49:20;94953.56;;;12.16;100.00
8075;BME280;4080;42.676;23.372;2023-05-23T02:51:47;94951.75;;;12.11;100.00
8075;BME280;4080;42.676;23.372;2023-05-23T02:54:15;94947.34;;;12.02;100.00
8075;BME280;4080;42.676;23.372;2023-05-23T02:56:43;94956.06;;;12.02;100.00
8075;BME280;4080;42.676;23.372;2023-05-23T02:59:10;94956.34;;;12.01;100.00
8075;BME280;4080;42.676;23.372;2023-05-23T03:01:37;94955.31;;;11.97;100.00
8075;BME280;4080;42.676;23.372;2023-05-23T03:04:04;94959.28;;;11.99;100.00
8075;BME280;4080;42.676;23.372;2023-05-23T03:06:31;94956.69;;;11.94;100.00
8075;BME280;4080;42.676;23.372;2023-05-23T03:08:58;94948.19;;;11.92;100.00
8075;BME280;4080;42.676;23.372;2023-05-23T03:11:26;94949.88;;;11.83;100.00
8075;BME280;4080;42.676;23.372;2023-05-23T03:13:54;94947.28;;;11.78;100.00
8075;BME280;4080;42.676;23.372;2023-05-23T03:16:21;94944.09;;;11.76;100.00
8075;BME280;4080;42.676;23.372;2023-05-23T03:18:48;94948.06;;;11.78;100.00
8075;BME280;4080;42.676;23.372;2023-05-23T03:21:14;94958.59;;;11.84;100.00
8075;BME280;4080;42.676;23.372;2023-05-23T03:23:41;94958.81;;;11.87;100.00
8075;BME280;4080;42.676;23.372;2023-05-23T03:26:08;94958.25;;;11.90;100.00
8075;BME280;4080;42.676;23.372;2023-05-23T03:28:36;94968.03;;;11.95;100.00
8075;BME280;4080;42.676;23.372;2023-05-23T03:31:02;94964.59;;;11.94;100.00
8075;BME280;4080;42.676;23.372;2023-05-23T03:33:29;94973.56;;;11.98;100.00
8075;BME280;4080;42.676;23.372;2023-05-23T03:35:56;94974.81;;;12.06;100.00
8075;BME280;4080;42.676;23.372;2023-05-23T03:38:22;94980.00;;;12.16;100.00
8075;BME280;4080;42.676;23.372;2023-05-23T03:40:49;94986.53;;;12.24;100.00
8075;BME280;4080;42.676;23.372;2023-05-23T03:43:16;94992.63;;;12.24;100.00
8075;BME280;4080;42.676;23.372;2023-05-23T03:45:44;94988.94;;;12.25;100.00
8075;BME280;4080;42.676;23.372;2023-05-23T03:48:11;94984.97;;;12.23;100.00
8075;BME280;4080;42.676;23.372;2023-05-23T03:50:38;94982.91;;;12.15;100.00
8075;BME280;4080;42.676;23.372;2023-05-23T03:53:04;94984.59;;;12.05;100.00
8075;BME280;4080;42.676;23.372;2023-05-23T03:55:31;94989.09;;;12.05;100.00
8075;BME280;4080;42.676;23.372;2023-05-23T03:57:58;94931.47;;;11.63;100.00
8075;BME280;4080;42.676;23.372;2023-05-23T04:00:25;94992.81;;;12.04;100.00
8075;BME280;4080;42.676;23.372;2023-05-23T04:02:54;94991.69;;;12.10;100.00
8075;BME280;4080;42.676;23.372;2023-05-23T04:05:21;94936.41;;;11.79;100.00
8075;BME280;4080;42.676;23.372;2023-05-23T04:07:48;94950.03;;;11.97;100.00
8075;BME280;4080;42.676;23.372;2023-05-23T04:10:15;94982.19;;;12.38;100.00
8075;BME280;4080;42.676;23.372;2023-05-23T04:12:42;94982.66;;;12.45;100.00
8075;BME280;4080;42.676;23.372;2023-05-23T04:15:09;94983.00;;;12.62;100.00
8075;BME280;4080;42.676;23.372;2023-05-23T04:17:36;94982.34;;;12.75;100.00
8075;BME280;4080;42.676;23.372;2023-05-23T04:20:07;94984.56;;;12.92;100.00
8075;BME280;4080;42.676;23.372;2023-05-23T04:22:35;94980.06;;;13.12;100.00
8075;BME280;4080;42.676;23.372;2023-05-23T04:25:02;94996.53;;;13.32;100.00
8075;BME280;4080;42.676;23.372;2023-05-23T04:27:28;94991.97;;;13.57;100.00
8075;BME280;4080;42.676;23.372;2023-05-23T04:29:55;95000.69;;;13.76;100.00
8075;BME280;4080;42.676;23.372;2023-05-23T04:32:23;95004.34;;;13.99;100.00
8075;BME280;4080;42.676;23.372;2023-05-23T04:34:50;95009.22;;;14.11;100.00
8075;BME280;4080;42.676;23.372;2023-05-23T04:37:18;95010.22;;;14.15;100.00
8075;BME280;4080;42.676;23.372;2023-05-23T04:39:50;95007.84;;;14.13;100.00
8075;BME280;4080;42.676;23.372;2023-05-23T04:42:17;95000.75;;;14.09;100.00
8075;BME280;4080;42.676;23.372;2023-05-23T04:44:48;95006.63;;;14.06;100.00
8075;BME280;4080;42.676;23.372;2023-05-23T04:47:15;95011.09;;;13.91;100.00
8075;BME280;4080;42.676;23.372;2023-05-23T04:49:42;95008.09;;;13.79;100.00
8075;BME280;4080;42.676;23.372;2023-05-23T04:52:09;95007.84;;;13.76;100.00
8075;BME280;4080;42.676;23.372;2023-05-23T04:54:37;95007.81;;;13.81;100.00
8075;BME280;4080;42.676;23.372;2023-05-23T04:57:04;95014.91;;;13.85;100.00
8075;BME280;4080;42.676;23.372;2023-05-23T04:59:31;95012.31;;;13.80;100.00
8075;BME280;4080;42.676;23.372;2023-05-23T05:01:58;95020.81;;;13.77;100.00
8075;BME280;4080;42.676;23.372;2023-05-23T05:04:24;95020.19;;;13.66;100.00
8075;BME280;4080;42.676;23.372;2023-05-23T05:06:51;95021.91;;;13.57;100.00
8075;BME280;4080;42.676;23.372;2023-05-23T05:09:18;95018.03;;;13.50;100.00
8075;BME280;4080;42.676;23.372;2023-05-23T05:11:47;95019.50;;;13.37;100.00
8075;BME280;4080;42.676;23.372;2023-05-23T05:14:14;95016.06;;;13.18;100.00
8075;BME280;4080;42.676;23.372;2023-05-23T05:16:40;95022.38;;;13.22;100.00
8075;BME280;4080;42.676;23.372;2023-05-23T05:19:08;95018.72;;;13.18;100.00
8075;BME280;4080;42.676;23.372;2023-05-23T05:21:35;95022.94;;;13.19;100.00
8075;BME280;4080;42.676;23.372;2023-05-23T05:24:02;95021.88;;;13.15;100.00
8075;BME280;4080;42.676;23.372;2023-05-23T05:26:29;95019.00;;;13.11;100.00
8075;BME280;4080;42.676;23.372;2023-05-23T05:28:57;95008.25;;;13.02;100.00
8075;BME280;4080;42.676;23.372;2023-05-23T05:31:24;95018.94;;;13.16;100.00
8075;BME280;4080;42.676;23.372;2023-05-23T05:33:51;95019.22;;;13.20;100.00
8075;BME280;4080;42.676;23.372;2023-05-23T05:36:18;95027.03;;;13.30;100.00
8075;BME280;4080;42.676;23.372;2023-05-23T05:38:45;95020.31;;;13.38;100.00
8075;BME280;4080;42.676;23.372;2023-05-23T05:41:12;95025.09;;;13.35;100.00
8075;BME280;4080;42.676;23.372;2023-05-23T05:43:39;95029.69;;;13.30;100.00
8075;BME280;4080;42.676;23.372;2023-05-23T05:46:07;95018.44;;;13.19;100.00
8075;BME280;4080;42.676;23.372;2023-05-23T05:48:34;95026.53;;;13.28;100.00
8075;BME280;4080;42.676;23.372;2023-05-23T05:51:00;95026.50;;;13.52;100.00
8075;BME280;4080;42.676;23.372;2023-05-23T05:53:27;95027.50;;;13.75;100.00
8075;BME280;4080;42.676;23.372;2023-05-23T05:55:54;95001.34;;;13.68;100.00
8075;BME280;4080;42.676;23.372;2023-05-23T05:58:20;95030.50;;;14.06;100.00
8075;BME280;4080;42.676;23.372;2023-05-23T06:00:47;95032.34;;;14.24;100.00
8075;BME280;4080;42.676;23.372;2023-05-23T06:03:15;95002.09;;;14.25;100.00
8075;BME280;4080;42.676;23.372;2023-05-23T06:05:42;95030.34;;;14.81;100.00
8075;BME280;4080;42.676;23.372;2023-05-23T06:08:09;95029.97;;;15.29;100.00
8075;BME280;4080;42.676;23.372;2023-05-23T06:10:36;95041.59;;;15.60;100.00
8075;BME280;4080;42.676;23.372;2023-05-23T06:13:03;95037.19;;;15.92;100.00
8075;BME280;4080;42.676;23.372;2023-05-23T06:15:30;95044.00;;;16.20;100.00
8075;BME280;4080;42.676;23.372;2023-05-23T06:17:56;95047.63;;;16.46;100.00
8075;BME280;4080;42.676;23.372;2023-05-23T06:20:24;95011.94;;;16.70;100.00
8075;BME280;4080;42.676;23.372;2023-05-23T06:22:51;95049.38;;;17.44;100.00
8075;BME280;4080;42.676;23.372;2023-05-23T06:25:18;95053.56;;;17.67;100.00
8075;BME280;4080;42.676;23.372;2023-05-23T06:27:45;95057.03;;;17.77;100.00
8075;BME280;4080;42.676;23.372;2023-05-23T06:30:12;95050.16;;;18.02;100.00
8075;BME280;4080;42.676;23.372;2023-05-23T06:32:39;95060.38;;;18.08;100.00
8075;BME280;4080;42.676;23.372;2023-05-23T06:35:07;95020.94;;;17.79;100.00
8075;BME280;4080;42.676;23.372;2023-05-23T06:37:35;95060.97;;;17.79;100.00
8075;BME280;4080;42.676;23.372;2023-05-23T06:40:02;95055.00;;;17.82;100.00
8075;BME280;4080;42.676;23.372;2023-05-23T06:42:29;95055.50;;;18.10;100.00
8075;BME280;4080;42.676;23.372;2023-05-23T06:44:56;95054.41;;;18.20;100.00
8075;BME280;4080;42.676;23.372;2023-05-23T06:47:23;95047.03;;;18.43;100.00
8075;BME280;4080;42.676;23.372;2023-05-23T06:49:49;95060.81;;;18.79;100.00
8075;BME280;4080;42.676;23.372;2023-05-23T06:52:16;95057.94;;;18.93;100.00
8075;BME280;4080;42.676;23.372;2023-05-23T06:54:44;95051.44;;;19.11;100.00
8075;BME280;4080;42.676;23.372;2023-05-23T06:57:11;95046.41;;;19.48;100.00
8075;BME280;4080;42.676;23.372;2023-05-23T06:59:37;95057.00;;;19.74;100.00
8075;BME280;4080;42.676;23.372;2023-05-23T07:02:04;95048.41;;;19.89;100.00
8075;BME280;4080;42.676;23.372;2023-05-23T07:04:31;95047.31;;;19.90;100.00
8075;BME280;4080;42.676;23.372;2023-05-23T07:06:57;95048.69;;;19.96;100.00
8075;BME280;4080;42.676;23.372;2023-05-23T07:09:24;95046.97;;;20.12;100.00
8075;BME280;4080;42.676;23.372;2023-05-23T07:11:52;95047.44;;;20.35;100.00
8075;BME280;4080;42.676;23.372;2023-05-23T07:14:19;95051.38;;;20.59;100.00
8075;BME280;4080;42.676;23.372;2023-05-23T07:16:46;95047.31;;;20.86;100.00
8075;BME280;4080;42.676;23.372;2023-05-23T07:19:12;95037.94;;;20.92;100.00
8075;BME280;4080;42.676;23.372;2023-05-23T07:21:39;95040.84;;;20.99;100.00
8075;BME280;4080;42.676;23.372;2023-05-23T07:24:06;95036.06;;;21.04;100.00
8075;BME280;4080;42.676;23.372;2023-05-23T07:26:33;95030.34;;;21.06;100.00
8075;BME280;4080;42.676;23.372;2023-05-23T07:29:01;95030.97;;;21.24;100.00
8075;BME280;4080;42.676;23.372;2023-05-23T07:31:28;95027.72;;;21.43;100.00
8075;BME280;4080;42.676;23.372;2023-05-23T07:33:55;95022.72;;;21.53;100.00
8075;BME280;4080;42.676;23.372;2023-05-23T07:36:21;95019.91;;;21.62;100.00
8075;BME280;4080;42.676;23.372;2023-05-23T07:38:48;95018.81;;;21.51;100.00
8075;BME280;4080;42.676;23.372;2023-05-23T07:41:15;95017.34;;;21.53;100.00
8075;BME280;4080;42.676;23.372;2023-05-23T07:43:42;95017.44;;;21.57;100.00
8075;BME280;4080;42.676;23.372;2023-05-23T07:46:10;95017.44;;;21.69;100.00
8075;BME280;4080;42.676;23.372;2023-05-23T07:48:36;95021.25;;;21.80;100.00
8075;BME280;4080;42.676;23.372;2023-05-23T07:51:03;95019.66;;;21.79;100.00
8075;BME280;4080;42.676;23.372;2023-05-23T07:53:30;95020.75;;;21.90;100.00
8075;BME280;4080;42.676;23.372;2023-05-23T07:55:57;95025.00;;;22.04;100.00
8075;BME280;4080;42.676;23.372;2023-05-23T07:58:23;95019.63;;;22.04;100.00
8075;BME280;4080;42.676;23.372;2023-05-23T08:00:50;95015.59;;;21.97;100.00
8075;BME280;4080;42.676;23.372;2023-05-23T08:03:18;95021.19;;;21.92;100.00
8075;BME280;4080;42.676;23.372;2023-05-23T08:05:45;95015.84;;;22.05;100.00
8075;BME280;4080;42.676;23.372;2023-05-23T08:08:12;95016.47;;;22.01;100.00
8075;BME280;4080;42.676;23.372;2023-05-23T08:10:39;95015.84;;;21.92;100.00
8075;BME280;4080;42.676;23.372;2023-05-23T08:13:08;95011.44;;;22.00;100.00
8075;BME280;4080;42.676;23.372;2023-05-23T08:15:35;95010.09;;;22.18;100.00
8075;BME280;4080;42.676;23.372;2023-05-23T08:18:02;95014.53;;;22.54;100.00
8075;BME280;4080;42.676;23.372;2023-05-23T08:20:31;95006.19;;;22.72;100.00
8075;BME280;4080;42.676;23.372;2023-05-23T08:22:57;95010.97;;;22.94;100.00
8075;BME280;4080;42.676;23.372;2023-05-23T08:25:24;95020.88;;;22.90;100.00
8075;BME280;4080;42.676;23.372;2023-05-23T08:28:12;95015.41;;;22.86;100.00
8075;BME280;4080;42.676;23.372;2023-05-23T08:30:39;95013.34;;;23.11;100.00
8075;BME280;4080;42.676;23.372;2023-05-23T08:33:06;95012.75;;;23.18;100.00
8075;BME280;4080;42.676;23.372;2023-05-23T08:35:34;95007.22;;;23.27;100.00
8075;BME280;4080;42.676;23.372;2023-05-23T08:38:01;95009.19;;;23.30;100.00
8075;BME280;4080;42.676;23.372;2023-05-23T08:40:30;94984.34;;;23.20;100.00
8075;BME280;4080;42.676;23.372;2023-05-23T08:42:57;95001.44;;;23.44;100.00
8075;BME280;4080;42.676;23.372;2023-05-23T08:45:24;94993.88;;;23.49;100.00
8075;BME280;4080;42.676;23.372;2023-05-23T08:47:51;95007.19;;;23.58;100.00
8075;BME280;4080;42.676;23.372;2023-05-23T08:50:18;95005.31;;;23.78;100.00
8075;BME280;4080;42.676;23.372;2023-05-23T08:52:53;95009.69;;;24.02;100.00
8075;BME280;4080;42.676;23.372;2023-05-23T08:55:23;95009.38;;;23.88;100.00
8075;BME280;4080;42.676;23.372;2023-05-23T08:57:51;95005.91;;;23.87;100.00
8075;BME280;4080;42.676;23.372;2023-05-23T09:00:18;94998.00;;;23.94;100.00
8075;BME280;4080;42.676;23.372;2023-05-23T09:02:47;95004.41;;;24.25;100.00
8075;BME280;4080;42.676;23.372;2023-05-23T09:05:13;94993.25;;;24.26;100.00
8075;BME280;4080;42.676;23.372;2023-05-23T09:07:43;94996.31;;;24.44;100.00
8075;BME280;4080;42.676;23.372;2023-05-23T09:10:13;94990.78;;;24.56;100.00
8075;BME280;4080;42.676;23.372;2023-05-23T09:12:41;94995.09;;;24.61;100.00
8075;BME280;4080;42.676;23.372;2023-05-23T09:15:09;94993.06;;;24.54;100.00
8075;BME280;4080;42.676;23.372;2023-05-23T09:17:37;94970.72;;;24.54;100.00
8075;BME280;4080;42.676;23.372;2023-05-23T09:20:10;94985.41;;;24.79;100.00
8075;BME280;4080;42.676;23.372;2023-05-23T09:22:37;94986.72;;;24.66;100.00
8075;BME280;4080;42.676;23.372;2023-05-23T09:25:04;94976.63;;;24.82;100.00
8075;BME280;4080;42.676;23.372;2023-05-23T09:27:33;94987.50;;;25.08;100.00
8075;BME280;4080;42.676;23.372;2023-05-23T09:30:05;94986.50;;;24.97;92.92
8075;BME280;4080;42.676;23.372;2023-05-23T09:32:32;94979.69;;;25.03;93.42
8075;BME280;4080;42.676;23.372;2023-05-23T09:35:00;94975.13;;;25.30;91.33
8075;BME280;4080;42.676;23.372;2023-05-23T09:37:29;94969.84;;;25.64;91.19
8075;BME280;4080;42.676;23.372;2023-05-23T09:39:58;94962.16;;;25.66;87.25
8075;BME280;4080;42.676;23.372;2023-05-23T09:42:25;94929.50;;;25.48;85.26
8075;BME280;4080;42.676;23.372;2023-05-23T09:44:58;94965.91;;;25.58;84.39
8075;BME280;4080;42.676;23.372;2023-05-23T09:47:25;94965.53;;;25.33;85.77
8075;BME280;4080;42.676;23.372;2023-05-23T09:49:52;94956.38;;;24.50;85.37
8075;BME280;4080;42.676;23.372;2023-05-23T09:52:19;94957.38;;;24.41;88.77
8075;BME280;4080;42.676;23.372;2023-05-23T09:54:46;94949.22;;;24.80;88.22
8075;BME280;4080;42.676;23.372;2023-05-23T09:57:14;94939.47;;;25.18;84.96
8075;BME280;4080;42.676;23.372;2023-05-23T09:59:44;94940.22;;;25.41;85.06
8075;BME280;4080;42.676;23.372;2023-05-23T10:02:32;94959.38;;;25.36;82.06
8075;BME280;4080;42.676;23.372;2023-05-23T10:05:08;94945.78;;;25.29;82.56
8075;BME280;4080;42.676;23.372;2023-05-23T10:07:39;94943.25;;;25.39;82.24
8075;BME280;4080;42.676;23.372;2023-05-23T10:10:10;94951.88;;;25.49;77.81
8075;BME280;4080;42.676;23.372;2023-05-23T10:12:43;94910.59;;;25.22;77.94
8075;BME280;4080;42.676;23.372;2023-05-23T10:15:14;94947.34;;;25.56;79.12
8075;BME280;4080;42.676;23.372;2023-05-23T10:18:06;94941.13;;;25.52;77.27
8075;BME280;4080;42.676;23.372;2023-05-23T10:20:35;94936.41;;;25.46;79.24
8075;BME280;4080;42.676;23.372;2023-05-23T10:23:03;94926.81;;;25.48;80.09
8075;BME280;4080;42.676;23.372;2023-05-23T10:25:30;94940.13;;;25.64;75.03
8075;BME280;4080;42.676;23.372;2023-05-23T10:27:58;94927.41;;;25.38;74.99
8075;BME280;4080;42.676;23.372;2023-05-23T10:30:26;94929.84;;;25.20;77.44
8075;BME280;4080;42.676;23.372;2023-05-23T10:32:54;94923.09;;;25.33;77.80
8075;BME280;4080;42.676;23.372;2023-05-23T10:35:31;94930.28;;;25.49;75.14
8075;BME280;4080;42.676;23.372;2023-05-23T10:38:01;94922.00;;;25.64;75.97
8075;BME280;4080;42.676;23.372;2023-05-23T10:40:36;94898.25;;;25.74;75.69
8075;BME280;4080;42.676;23.372;2023-05-23T10:43:14;94915.63;;;26.06;75.93
8075;BME280;4080;42.676;23.372;2023-05-23T10:45:42;94918.13;;;26.25;74.25
8075;BME280;4080;42.676;23.372;2023-05-23T10:48:19;94901.38;;;26.09;72.39
8075;BME280;4080;42.676;23.372;2023-05-23T10:51:00;94916.78;;;25.75;69.86
8075;BME280;4080;42.676;23.372;2023-05-23T10:53:28;94912.16;;;25.76;73.02
8075;BME280;4080;42.676;23.372;2023-05-23T10:55:55;94924.25;;;25.59;68.90
8075;BME280;4080;42.676;23.372;2023-05-23T10:58:22;94911.63;;;25.40;71.00
8075;BME280;4080;42.676;23.372;2023-05-23T11:00:53;94860.09;;;25.22;72.23
8075;BME280;4080;42.676;23.372;2023-05-23T11:03:30;94907.06;;;25.71;69.33
8075;BME280;4080;42.676;23.372;2023-05-23T11:06:01;94904.53;;;25.85;68.86
8075;BME280;4080;42.676;23.372;2023-05-23T11:08:35;94902.91;;;25.77;65.69
8075;BME280;4080;42.676;23.372;2023-05-23T11:11:03;94895.13;;;25.72;63.95
8075;BME280;4080;42.676;23.372;2023-05-23T11:13:52;94896.53;;;25.65;64.17
8075;BME280;4080;42.676;23.372;2023-05-23T11:16:23;94904.91;;;25.57;63.95
8075;BME280;4080;42.676;23.372;2023-05-23T11:18:50;94894.81;;;25.50;65.95
8075;BME280;4080;42.676;23.372;2023-05-23T11:21:18;94873.69;;;25.59;66.30
8075;BME280;4080;42.676;23.372;2023-05-23T11:23:45;94883.75;;;25.62;66.88
8075;BME280;4080;42.676;23.372;2023-05-23T11:26:28;94875.88;;;25.77;67.09
8075;BME280;4080;42.676;23.372;2023-05-23T11:28:55;94885.03;;;25.68;61.88
8075;BME280;4080;42.676;23.372;2023-05-23T11:31:22;94883.72;;;25.59;61.58
8075;BME280;4080;42.676;23.372;2023-05-23T11:33:49;94890.63;;;25.56;60.78
8075;BME280;4080;42.676;23.372;2023-05-23T11:36:19;94883.22;;;25.50;61.88
8075;BME280;4080;42.676;23.372;2023-05-23T11:38:46;94885.09;;;25.46;62.83
8075;BME280;4080;42.676;23.372;2023-05-23T11:41:13;94889.19;;;25.36;63.92
8075;BME280;4080;42.676;23.372;2023-05-23T11:43:49;94868.44;;;25.14;62.90
8075;BME280;4080;42.676;23.372;2023-05-23T11:46:15;94865.69;;;25.10;64.47
8075;BME280;4080;42.676;23.372;2023-05-23T11:48:44;94873.50;;;25.15;65.74
8075;BME280;4080;42.676;23.372;2023-05-23T11:51:11;94866.59;;;25.18;65.43
8075;BME280;4080;42.676;23.372;2023-05-23T11:53:39;94871.25;;;25.21;64.15
8075;BME280;4080;42.676;23.372;2023-05-23T11:56:06;94875.28;;;25.34;64.21
8075;BME280;4080;42.676;23.372;2023-05-23T11:58:34;94867.72;;;25.43;64.41
8075;BME280;4080;42.676;23.372;2023-05-23T12:01:02;94860.44;;;25.47;62.57
8075;BME280;4080;42.676;23.372;2023-05-23T12:03:29;94859.38;;;25.55;64.78
8075;BME280;4080;42.676;23.372;2023-05-23T12:05:56;94859.94;;;25.68;64.00
8075;BME280;4080;42.676;23.372;2023-05-23T12:08:24;94853.88;;;25.48;63.20
8075;BME280;4080;42.676;23.372;2023-05-23T12:10:55;94859.69;;;25.50;62.37
8075;BME280;4080;42.676;23.372;2023-05-23T12:13:23;94837.22;;;25.43;62.67
8075;BME280;4080;42.676;23.372;2023-05-23T12:15:52;94859.16;;;25.67;63.46
8075;BME280;4080;42.676;23.372;2023-05-23T12:18:20;94855.81;;;25.48;62.58
8075;BME280;4080;42.676;23.372;2023-05-23T12:20:47;94849.19;;;25.42;63.49
8075;BME280;4080;42.676;23.372;2023-05-23T12:23:17;94836.13;;;25.47;62.69
8075;BME280;4080;42.676;23.372;2023-05-23T12:25:48;94800.63;;;25.15;61.37
8075;BME280;4080;42.676;23.372;2023-05-23T12:28:17;94839.78;;;25.32;62.32
8075;BME280;4080;42.676;23.372;2023-05-23T12:30:45;94834.09;;;25.41;61.55
8075;BME280;4080;42.676;23.372;2023-05-23T12:33:12;94824.09;;;25.41;61.73
8075;BME280;4080;42.676;23.372;2023-05-23T12:35:42;94769.53;;;24.98;60.08
8075;BME280;4080;42.676;23.372;2023-05-23T12:38:13;94828.00;;;25.17;60.30
8075;BME280;4080;42.676;23.372;2023-05-23T12:40:40;94823.06;;;25.23;61.23
8075;BME280;4080;42.676;23.372;2023-05-23T12:43:08;94824.69;;;25.27;59.30
8075;BME280;4080;42.676;23.372;2023-05-23T12:45:36;94826.06;;;25.14;53.41
8075;BME280;4080;42.676;23.372;2023-05-23T12:48:03;94809.81;;;25.11;54.56
8075;BME280;4080;42.676;23.372;2023-05-23T12:50:31;94805.78;;;25.27;52.65
8075;BME280;4080;42.676;23.372;2023-05-23T12:52:58;94807.09;;;25.41;53.71
8075;BME280;4080;42.676;23.372;2023-05-23T12:55:24;94805.91;;;25.38;50.25
8075;BME280;4080;42.676;23.372;2023-05-23T12:57:51;94804.91;;;25.20;51.11
8075;BME280;4080;42.676;23.372;2023-05-23T13:00:19;94811.78;;;25.14;50.94
8075;BME280;4080;42.676;23.372;2023-05-23T13:02:48;94804.69;;;25.05;50.77
8075;BME280;4080;42.676;23.372;2023-05-23T13:05:14;94800.81;;;25.03;50.02
8075;BME280;4080;42.676;23.372;2023-05-23T13:07:41;94792.47;;;25.12;51.39